Adamsville, Rhode Island
Current Conditions -  °F | °C
As of 12:36 PM on Wednesday 26 Nov 2014 (Local Time) from KUUU Reporting Station
Moderate Rain Moderate Rain  
Wind Chill: 31°   Ceiling: 600
Heat Index: 40°   Visibility: 1.7mi
Dew Point: 37°   Wind: 16mph
Humidity: 89%   Direction: 30°NNE
Pressure: 29.99"   Gusts: 24mph
Location:  41.55°N, 71.13°W
Report Text: KUUU 261736Z AUTO 03014G21KT 1 3/4SM RA BR BKN006 OVC011 04/03 A2999 RMK AO2 PRESFR P0007 T00440028
Loading
Personal Weather Stations






























Interactive Weather Map New forecast layout! Learn more

10-Day Weather Forecast

Advertisements
Track Severe Weather on mobile